sensor_id;sensor_type;location;lat;lon;timestamp;pressure;altitude;pressure_sealevel;temperature;humidity
75745;BME280;64359;51.366;-0.222;2023-03-03T00:00:45;102360.19;;;22.14;42.72
75745;BME280;64359;51.366;-0.222;2023-03-03T00:01:50;102360.35;;;22.15;42.87
75745;BME280;64359;51.366;-0.222;2023-03-03T00:02:54;102361.85;;;22.14;42.85
75745;BME280;64359;51.366;-0.222;2023-03-03T00:04:01;102366.93;;;22.14;42.81
75745;BME280;64359;51.366;-0.222;2023-03-03T00:05:06;102363.58;;;22.13;42.90
75745;BME280;64359;51.366;-0.222;2023-03-03T00:06:12;102360.28;;;22.13;42.75
75745;BME280;64359;51.366;-0.222;2023-03-03T00:07:17;102361.20;;;22.14;42.80
75745;BME280;64359;51.366;-0.222;2023-03-03T00:08:25;102364.11;;;22.13;42.89
75745;BME280;64359;51.366;-0.222;2023-03-03T00:09:30;102368.83;;;22.13;42.72
75745;BME280;64359;51.366;-0.222;2023-03-03T00:10:34;102369.06;;;22.13;42.89
75745;BME280;64359;51.366;-0.222;2023-03-03T00:11:39;102365.80;;;22.13;42.80
75745;BME280;64359;51.366;-0.222;2023-03-03T00:12:48;102368.38;;;22.12;42.55
75745;BME280;64359;51.366;-0.222;2023-03-03T00:13:51;102369.50;;;22.12;42.79
75745;BME280;64359;51.366;-0.222;2023-03-03T00:14:56;102373.58;;;22.09;42.79
75745;BME280;64359;51.366;-0.222;2023-03-03T00:16:13;102376.16;;;22.09;42.80
75745;BME280;64359;51.366;-0.222;2023-03-03T00:17:21;102370.25;;;22.08;42.74
75745;BME280;64359;51.366;-0.222;2023-03-03T00:18:32;102371.00;;;22.08;42.79
75745;BME280;64359;51.366;-0.222;2023-03-03T00:19:39;102372.86;;;22.08;42.69
75745;BME280;64359;51.366;-0.222;2023-03-03T00:20:48;102373.41;;;22.08;42.63
75745;BME280;64359;51.366;-0.222;2023-03-03T00:21:56;102373.40;;;22.08;42.64
75745;BME280;64359;51.366;-0.222;2023-03-03T00:23:14;102373.95;;;22.07;42.61
75745;BME280;64359;51.366;-0.222;2023-03-03T00:24:22;102370.06;;;22.06;42.73
75745;BME280;64359;51.366;-0.222;2023-03-03T00:25:30;102373.77;;;22.06;42.57
75745;BME280;64359;51.366;-0.222;2023-03-03T00:26:38;102372.80;;;22.04;42.13
75745;BME280;64359;51.366;-0.222;2023-03-03T00:27:43;102375.66;;;22.04;42.18
75745;BME280;64359;51.366;-0.222;2023-03-03T00:28:49;102374.80;;;22.04;42.40
75745;BME280;64359;51.366;-0.222;2023-03-03T00:29:56;102375.69;;;22.04;42.45
75745;BME280;64359;51.366;-0.222;2023-03-03T00:31:01;102377.02;;;22.04;42.46
75745;BME280;64359;51.366;-0.222;2023-03-03T00:32:25;102378.48;;;22.03;42.44
75745;BME280;64359;51.366;-0.222;2023-03-03T00:33:32;102379.62;;;22.03;42.43
75745;BME280;64359;51.366;-0.222;2023-03-03T00:34:37;102380.57;;;22.02;42.60
75745;BME280;64359;51.366;-0.222;2023-03-03T00:35:43;102380.23;;;22.02;42.49
75745;BME280;64359;51.366;-0.222;2023-03-03T00:36:50;102383.14;;;22.02;42.49
75745;BME280;64359;51.366;-0.222;2023-03-03T00:37:57;102386.56;;;22.02;42.47
75745;BME280;64359;51.366;-0.222;2023-03-03T00:39:21;102383.71;;;22.02;42.49
75745;BME280;64359;51.366;-0.222;2023-03-03T00:40:30;102384.52;;;22.01;42.57
75745;BME280;64359;51.366;-0.222;2023-03-03T00:41:36;102383.81;;;22.01;42.68
75745;BME280;64359;51.366;-0.222;2023-03-03T00:42:43;102382.40;;;22.00;42.61
75745;BME280;64359;51.366;-0.222;2023-03-03T00:43:51;102385.66;;;22.00;42.80
75745;BME280;64359;51.366;-0.222;2023-03-03T00:44:58;102385.12;;;22.00;42.67
75745;BME280;64359;51.366;-0.222;2023-03-03T00:46:03;102388.05;;;22.00;42.64
75745;BME280;64359;51.366;-0.222;2023-03-03T00:47:24;102392.55;;;22.00;42.67
75745;BME280;64359;51.366;-0.222;2023-03-03T00:48:30;102385.89;;;22.00;42.70
75745;BME280;64359;51.366;-0.222;2023-03-03T00:49:44;102391.34;;;21.99;42.75
75745;BME280;64359;51.366;-0.222;2023-03-03T00:50:48;102391.00;;;21.99;42.61
75745;BME280;64359;51.366;-0.222;2023-03-03T00:51:53;102388.06;;;22.00;42.63
75745;BME280;64359;51.366;-0.222;2023-03-03T00:53:06;102387.70;;;22.00;42.71
75745;BME280;64359;51.366;-0.222;2023-03-03T00:54:13;102385.55;;;22.00;42.86
75745;BME280;64359;51.366;-0.222;2023-03-03T00:55:18;102386.86;;;21.99;42.85
75745;BME280;64359;51.366;-0.222;2023-03-03T00:56:23;102387.89;;;21.99;42.74
75745;BME280;64359;51.366;-0.222;2023-03-03T00:57:28;102392.80;;;21.99;42.71
75745;BME280;64359;51.366;-0.222;2023-03-03T00:58:32;102389.67;;;22.00;42.62
75745;BME280;64359;51.366;-0.222;2023-03-03T00:59:37;102390.96;;;21.99;42.57
75745;BME280;64359;51.366;-0.222;2023-03-03T01:00:41;102390.42;;;22.00;42.55
75745;BME280;64359;51.366;-0.222;2023-03-03T01:01:46;102390.06;;;22.00;42.58
75745;BME280;64359;51.366;-0.222;2023-03-03T01:02:50;102393.69;;;21.99;42.63
75745;BME280;64359;51.366;-0.222;2023-03-03T01:03:54;102390.43;;;21.99;42.54
75745;BME280;64359;51.366;-0.222;2023-03-03T01:04:59;102389.52;;;22.00;42.69
75745;BME280;64359;51.366;-0.222;2023-03-03T01:06:04;102394.34;;;22.00;42.74
75745;BME280;64359;51.366;-0.222;2023-03-03T01:07:08;102390.03;;;22.00;42.57
75745;BME280;64359;51.366;-0.222;2023-03-03T01:08:13;102390.74;;;22.00;42.52
75745;BME280;64359;51.366;-0.222;2023-03-03T01:09:17;102386.60;;;22.00;42.67
75745;BME280;64359;51.366;-0.222;2023-03-03T01:10:22;102387.91;;;22.00;42.56
75745;BME280;64359;51.366;-0.222;2023-03-03T01:11:27;102392.74;;;22.00;42.56
75745;BME280;64359;51.366;-0.222;2023-03-03T01:12:31;102393.14;;;22.00;42.61
75745;BME280;64359;51.366;-0.222;2023-03-03T01:13:36;102389.52;;;22.00;42.52
75745;BME280;64359;51.366;-0.222;2023-03-03T01:14:42;102392.23;;;21.99;42.53
75745;BME280;64359;51.366;-0.222;2023-03-03T01:15:47;102393.69;;;21.99;42.45
75745;BME280;64359;51.366;-0.222;2023-03-03T01:16:51;102392.10;;;21.99;42.59
75745;BME280;64359;51.366;-0.222;2023-03-03T01:17:56;102390.34;;;21.99;42.51
75745;BME280;64359;51.366;-0.222;2023-03-03T01:19:01;102391.60;;;21.99;42.45
75745;BME280;64359;51.366;-0.222;2023-03-03T01:20:07;102391.80;;;21.98;42.48
75745;BME280;64359;51.366;-0.222;2023-03-03T01:21:12;102392.48;;;21.99;42.35
75745;BME280;64359;51.366;-0.222;2023-03-03T01:22:16;102390.75;;;21.98;42.32
75745;BME280;64359;51.366;-0.222;2023-03-03T01:23:20;102392.75;;;21.98;42.41
75745;BME280;64359;51.366;-0.222;2023-03-03T01:24:25;102393.12;;;21.98;42.38
75745;BME280;64359;51.366;-0.222;2023-03-03T01:25:29;102394.98;;;21.97;42.39
75745;BME280;64359;51.366;-0.222;2023-03-03T01:26:34;102394.84;;;21.97;42.39
75745;BME280;64359;51.366;-0.222;2023-03-03T01:27:38;102395.89;;;21.97;42.37
75745;BME280;64359;51.366;-0.222;2023-03-03T01:28:42;102396.07;;;21.97;42.38
75745;BME280;64359;51.366;-0.222;2023-03-03T01:29:47;102399.02;;;21.97;42.39
75745;BME280;64359;51.366;-0.222;2023-03-03T01:30:51;102401.52;;;21.97;42.47
75745;BME280;64359;51.366;-0.222;2023-03-03T01:31:56;102400.27;;;21.97;42.51
75745;BME280;64359;51.366;-0.222;2023-03-03T01:33:00;102401.70;;;21.97;42.40
75745;BME280;64359;51.366;-0.222;2023-03-03T01:34:04;102400.61;;;21.97;42.37
75745;BME280;64359;51.366;-0.222;2023-03-03T01:35:11;102399.89;;;21.97;42.27
75745;BME280;64359;51.366;-0.222;2023-03-03T01:36:15;102398.33;;;21.96;42.41
75745;BME280;64359;51.366;-0.222;2023-03-03T01:37:25;102399.21;;;21.97;42.35
75745;BME280;64359;51.366;-0.222;2023-03-03T01:38:30;102397.41;;;21.97;42.41
75745;BME280;64359;51.366;-0.222;2023-03-03T01:39:34;102400.67;;;21.97;42.21
75745;BME280;64359;51.366;-0.222;2023-03-03T01:40:39;102399.42;;;21.96;42.52
75745;BME280;64359;51.366;-0.222;2023-03-03T01:41:43;102401.58;;;21.97;42.32
75745;BME280;64359;51.366;-0.222;2023-03-03T01:42:48;102399.59;;;21.97;42.30
75745;BME280;64359;51.366;-0.222;2023-03-03T01:43:52;102397.24;;;21.96;42.20
75745;BME280;64359;51.366;-0.222;2023-03-03T01:45:15;102399.08;;;21.96;42.37
75745;BME280;64359;51.366;-0.222;2023-03-03T01:46:37;102400.63;;;21.95;42.41
75745;BME280;64359;51.366;-0.222;2023-03-03T01:47:47;102399.64;;;21.94;42.43
75745;BME280;64359;51.366;-0.222;2023-03-03T01:48:55;102398.78;;;21.94;42.41
75745;BME280;64359;51.366;-0.222;2023-03-03T01:50:13;102397.93;;;21.93;42.32
75745;BME280;64359;51.366;-0.222;2023-03-03T01:51:21;102399.02;;;21.93;42.41
75745;BME280;64359;51.366;-0.222;2023-03-03T01:52:30;102397.93;;;21.93;42.42
75745;BME280;64359;51.366;-0.222;2023-03-03T01:53:41;102395.86;;;21.93;42.34
75745;BME280;64359;51.366;-0.222;2023-03-03T01:54:49;102398.57;;;21.92;42.26
75745;BME280;64359;51.366;-0.222;2023-03-03T01:55:54;102397.52;;;21.92;42.29
75745;BME280;64359;51.366;-0.222;2023-03-03T01:57:02;102397.11;;;21.93;42.29
75745;BME280;64359;51.366;-0.222;2023-03-03T01:58:11;102394.61;;;21.92;42.31
75745;BME280;64359;51.366;-0.222;2023-03-03T01:59:19;102397.70;;;21.92;42.13
75745;BME280;64359;51.366;-0.222;2023-03-03T02:00:24;102397.55;;;21.92;42.29
75745;BME280;64359;51.366;-0.222;2023-03-03T02:01:29;102397.04;;;21.92;42.15
75745;BME280;64359;51.366;-0.222;2023-03-03T02:02:35;102397.14;;;21.92;42.37
75745;BME280;64359;51.366;-0.222;2023-03-03T02:03:39;102398.63;;;21.92;42.10
75745;BME280;64359;51.366;-0.222;2023-03-03T02:04:44;102397.92;;;21.92;42.19
75745;BME280;64359;51.366;-0.222;2023-03-03T02:05:49;102398.05;;;21.92;42.19
75745;BME280;64359;51.366;-0.222;2023-03-03T02:06:58;102398.27;;;21.92;42.23
75745;BME280;64359;51.366;-0.222;2023-03-03T02:08:04;102397.98;;;21.91;42.10
75745;BME280;64359;51.366;-0.222;2023-03-03T02:09:15;102398.84;;;21.92;42.15
75745;BME280;64359;51.366;-0.222;2023-03-03T02:10:23;102399.67;;;21.91;42.18
75745;BME280;64359;51.366;-0.222;2023-03-03T02:11:30;102400.39;;;21.91;42.21
75745;BME280;64359;51.366;-0.222;2023-03-03T02:12:37;102397.70;;;21.90;42.14
75745;BME280;64359;51.366;-0.222;2023-03-03T02:13:43;102395.96;;;21.90;42.20
75745;BME280;64359;51.366;-0.222;2023-03-03T02:14:47;102396.31;;;21.90;42.24
75745;BME280;64359;51.366;-0.222;2023-03-03T02:15:52;102397.95;;;21.90;42.23
75745;BME280;64359;51.366;-0.222;2023-03-03T02:16:58;102394.58;;;21.89;42.05
75745;BME280;64359;51.366;-0.222;2023-03-03T02:18:04;102395.66;;;21.89;42.16
75745;BME280;64359;51.366;-0.222;2023-03-03T02:19:15;102394.23;;;21.89;42.19
75745;BME280;64359;51.366;-0.222;2023-03-03T02:20:30;102393.39;;;21.88;42.10
75745;BME280;64359;51.366;-0.222;2023-03-03T02:21:37;102393.61;;;21.88;42.02
75745;BME280;64359;51.366;-0.222;2023-03-03T02:22:46;102390.96;;;21.87;42.18
75745;BME280;64359;51.366;-0.222;2023-03-03T02:23:59;102394.20;;;21.88;41.94
75745;BME280;64359;51.366;-0.222;2023-03-03T02:25:09;102392.63;;;21.87;42.13
75745;BME280;64359;51.366;-0.222;2023-03-03T02:26:19;102395.23;;;21.86;42.11
75745;BME280;64359;51.366;-0.222;2023-03-03T02:27:26;102395.34;;;21.87;42.19
75745;BME280;64359;51.366;-0.222;2023-03-03T02:28:33;102394.70;;;21.86;42.25
75745;BME280;64359;51.366;-0.222;2023-03-03T02:29:38;102396.28;;;21.87;42.14
75745;BME280;64359;51.366;-0.222;2023-03-03T02:30:42;102396.80;;;21.87;42.06
75745;BME280;64359;51.366;-0.222;2023-03-03T02:31:47;102400.02;;;21.87;42.18
75745;BME280;64359;51.366;-0.222;2023-03-03T02:32:51;102395.48;;;21.88;42.02
75745;BME280;64359;51.366;-0.222;2023-03-03T02:33:55;102393.65;;;21.88;42.00
75745;BME280;64359;51.366;-0.222;2023-03-03T02:35:00;102397.79;;;21.88;42.05
75745;BME280;64359;51.366;-0.222;2023-03-03T02:36:05;102395.95;;;21.88;42.09
75745;BME280;64359;51.366;-0.222;2023-03-03T02:37:09;102398.47;;;21.89;42.14
75745;BME280;64359;51.366;-0.222;2023-03-03T02:38:20;102392.33;;;21.88;42.20
75745;BME280;64359;51.366;-0.222;2023-03-03T02:39:28;102391.62;;;21.88;42.13
75745;BME280;64359;51.366;-0.222;2023-03-03T02:40:35;102392.25;;;21.87;42.07
75745;BME280;64359;51.366;-0.222;2023-03-03T02:41:43;102390.60;;;21.88;41.92
75745;BME280;64359;51.366;-0.222;2023-03-03T02:42:52;102390.97;;;21.87;41.90
75745;BME280;64359;51.366;-0.222;2023-03-03T02:44:01;102390.80;;;21.87;42.01
75745;BME280;64359;51.366;-0.222;2023-03-03T02:45:07;102392.45;;;21.87;41.96
75745;BME280;64359;51.366;-0.222;2023-03-03T02:46:11;102394.80;;;21.87;41.93
75745;BME280;64359;51.366;-0.222;2023-03-03T02:47:16;102392.94;;;21.88;41.86
75745;BME280;64359;51.366;-0.222;2023-03-03T02:48:20;102397.48;;;21.87;41.88
75745;BME280;64359;51.366;-0.222;2023-03-03T02:49:28;102394.80;;;21.87;41.92
75745;BME280;64359;51.366;-0.222;2023-03-03T02:50:32;102395.72;;;21.87;42.13
75745;BME280;64359;51.366;-0.222;2023-03-03T02:51:37;102397.30;;;21.87;41.97
75745;BME280;64359;51.366;-0.222;2023-03-03T02:52:42;102395.34;;;21.87;41.95
75745;BME280;64359;51.366;-0.222;2023-03-03T02:53:46;102397.52;;;21.87;41.94
75745;BME280;64359;51.366;-0.222;2023-03-03T02:54:51;102399.67;;;21.87;42.00
75745;BME280;64359;51.366;-0.222;2023-03-03T02:55:55;102399.71;;;21.87;41.97
75745;BME280;64359;51.366;-0.222;2023-03-03T02:57:00;102402.40;;;21.87;41.96
75745;BME280;64359;51.366;-0.222;2023-03-03T02:58:04;102403.67;;;21.87;41.95
75745;BME280;64359;51.366;-0.222;2023-03-03T02:59:09;102398.05;;;21.87;41.89
75745;BME280;64359;51.366;-0.222;2023-03-03T03:00:14;102398.60;;;21.87;41.97
75745;BME280;64359;51.366;-0.222;2023-03-03T03:01:19;102402.05;;;21.87;41.96
75745;BME280;64359;51.366;-0.222;2023-03-03T03:02:23;102403.16;;;21.86;42.08
75745;BME280;64359;51.366;-0.222;2023-03-03T03:03:29;102404.80;;;21.87;41.92
75745;BME280;64359;51.366;-0.222;2023-03-03T03:04:33;102404.83;;;21.86;41.98
75745;BME280;64359;51.366;-0.222;2023-03-03T03:05:37;102407.00;;;21.86;41.81
75745;BME280;64359;51.366;-0.222;2023-03-03T03:06:42;102404.17;;;21.86;41.79
75745;BME280;64359;51.366;-0.222;2023-03-03T03:07:47;102406.17;;;21.86;41.86
75745;BME280;64359;51.366;-0.222;2023-03-03T03:08:51;102405.70;;;21.85;41.94
75745;BME280;64359;51.366;-0.222;2023-03-03T03:09:55;102406.92;;;21.85;41.91
75745;BME280;64359;51.366;-0.222;2023-03-03T03:11:00;102405.13;;;21.85;41.91
75745;BME280;64359;51.366;-0.222;2023-03-03T03:12:05;102404.41;;;21.85;41.88
75745;BME280;64359;51.366;-0.222;2023-03-03T03:13:09;102406.67;;;21.84;41.93
75745;BME280;64359;51.366;-0.222;2023-03-03T03:14:14;102407.70;;;21.85;42.08
75745;BME280;64359;51.366;-0.222;2023-03-03T03:15:18;102406.20;;;21.85;42.05
75745;BME280;64359;51.366;-0.222;2023-03-03T03:16:23;102406.61;;;21.85;41.96
75745;BME280;64359;51.366;-0.222;2023-03-03T03:17:27;102404.65;;;21.85;41.84
75745;BME280;64359;51.366;-0.222;2023-03-03T03:18:31;102407.46;;;21.85;42.08
75745;BME280;64359;51.366;-0.222;2023-03-03T03:19:36;102406.41;;;21.85;42.06
75745;BME280;64359;51.366;-0.222;2023-03-03T03:20:40;102409.40;;;21.86;42.03
75745;BME280;64359;51.366;-0.222;2023-03-03T03:21:44;102407.09;;;21.85;42.07
75745;BME280;64359;51.366;-0.222;2023-03-03T03:22:49;102406.86;;;21.86;41.92
75745;BME280;64359;51.366;-0.222;2023-03-03T03:23:53;102410.09;;;21.86;41.95
75745;BME280;64359;51.366;-0.222;2023-03-03T03:24:57;102405.54;;;21.86;42.00
75745;BME280;64359;51.366;-0.222;2023-03-03T03:26:02;102408.29;;;21.86;42.10
75745;BME280;64359;51.366;-0.222;2023-03-03T03:27:06;102406.09;;;21.86;41.92
75745;BME280;64359;51.366;-0.222;2023-03-03T03:28:11;102410.39;;;21.87;41.98
75745;BME280;64359;51.366;-0.222;2023-03-03T03:29:15;102410.39;;;21.87;42.01
75745;BME280;64359;51.366;-0.222;2023-03-03T03:30:20;102412.70;;;21.87;41.93
75745;BME280;64359;51.366;-0.222;2023-03-03T03:31:24;102411.08;;;21.87;42.11
75745;BME280;64359;51.366;-0.222;2023-03-03T03:32:28;102408.80;;;21.87;41.99
75745;BME280;64359;51.366;-0.222;2023-03-03T03:33:33;102406.94;;;21.87;41.91
75745;BME280;64359;51.366;-0.222;2023-03-03T03:34:37;102413.79;;;21.87;41.89
75745;BME280;64359;51.366;-0.222;2023-03-03T03:35:42;102412.88;;;21.87;41.95
75745;BME280;64359;51.366;-0.222;2023-03-03T03:36:49;102413.45;;;21.87;42.14
75745;BME280;64359;51.366;-0.222;2023-03-03T03:37:53;102414.16;;;21.87;42.09
75745;BME280;64359;51.366;-0.222;2023-03-03T03:38:57;102411.11;;;21.87;42.08
75745;BME280;64359;51.366;-0.222;2023-03-03T03:40:06;102414.16;;;21.87;42.11
75745;BME280;64359;51.366;-0.222;2023-03-03T03:41:11;102414.42;;;21.86;42.10
75745;BME280;64359;51.366;-0.222;2023-03-03T03:42:16;102413.82;;;21.87;41.98
75745;BME280;64359;51.366;-0.222;2023-03-03T03:43:20;102416.70;;;21.87;42.02
75745;BME280;64359;51.366;-0.222;2023-03-03T03:44:25;102415.08;;;21.87;41.87
75745;BME280;64359;51.366;-0.222;2023-03-03T03:45:29;102417.48;;;21.86;42.01
75745;BME280;64359;51.366;-0.222;2023-03-03T03:46:34;102417.63;;;21.87;41.81
75745;BME280;64359;51.366;-0.222;2023-03-03T03:47:38;102419.96;;;21.87;41.79
75745;BME280;64359;51.366;-0.222;2023-03-03T03:48:43;102420.67;;;21.87;41.89
75745;BME280;64359;51.366;-0.222;2023-03-03T03:49:47;102417.45;;;21.87;41.81
75745;BME280;64359;51.366;-0.222;2023-03-03T03:50:51;102422.67;;;21.87;41.85
75745;BME280;64359;51.366;-0.222;2023-03-03T03:51:56;102422.48;;;21.87;41.72
75745;BME280;64359;51.366;-0.222;2023-03-03T03:53:00;102420.64;;;21.87;41.75
75745;BME280;64359;51.366;-0.222;2023-03-03T03:54:05;102422.67;;;21.87;41.77
75745;BME280;64359;51.366;-0.222;2023-03-03T03:55:10;102422.14;;;21.87;41.86
75745;BME280;64359;51.366;-0.222;2023-03-03T03:56:14;102420.67;;;21.87;41.83
75745;BME280;64359;51.366;-0.222;2023-03-03T03:57:19;102422.70;;;21.87;41.94
75745;BME280;64359;51.366;-0.222;2023-03-03T03:58:23;102422.73;;;21.86;42.00
75745;BME280;64359;51.366;-0.222;2023-03-03T03:59:28;102422.40;;;21.86;42.03
75745;BME280;64359;51.366;-0.222;2023-03-03T04:00:32;102421.14;;;21.86;41.96
75745;BME280;64359;51.366;-0.222;2023-03-03T04:01:37;102421.65;;;21.86;41.85
75745;BME280;64359;51.366;-0.222;2023-03-03T04:02:41;102419.77;;;21.85;41.72
75745;BME280;64359;51.366;-0.222;2023-03-03T04:03:45;102421.61;;;21.85;41.72
75745;BME280;64359;51.366;-0.222;2023-03-03T04:04:51;102421.77;;;21.85;41.66
75745;BME280;64359;51.366;-0.222;2023-03-03T04:05:55;102420.52;;;21.85;41.65
75745;BME280;64359;51.366;-0.222;2023-03-03T04:06:59;102424.75;;;21.84;41.59
75745;BME280;64359;51.366;-0.222;2023-03-03T04:08:04;102424.41;;;21.84;41.59
75745;BME280;64359;51.366;-0.222;2023-03-03T04:09:09;102423.66;;;21.84;41.45
75745;BME280;64359;51.366;-0.222;2023-03-03T04:10:13;102423.19;;;21.84;41.71
75745;BME280;64359;51.366;-0.222;2023-03-03T04:11:18;102426.10;;;21.84;41.62
75745;BME280;64359;51.366;-0.222;2023-03-03T04:12:22;102423.77;;;21.83;41.60
75745;BME280;64359;51.366;-0.222;2023-03-03T04:13:26;102429.20;;;21.83;41.54
75745;BME280;64359;51.366;-0.222;2023-03-03T04:14:33;102427.55;;;21.83;41.67
75745;BME280;64359;51.366;-0.222;2023-03-03T04:15:38;102425.96;;;21.83;41.56
75745;BME280;64359;51.366;-0.222;2023-03-03T04:16:43;102424.36;;;21.83;41.52
75745;BME280;64359;51.366;-0.222;2023-03-03T04:17:47;102429.99;;;21.82;41.57
75745;BME280;64359;51.366;-0.222;2023-03-03T04:18:51;102427.86;;;21.82;41.73
75745;BME280;64359;51.366;-0.222;2023-03-03T04:19:55;102426.09;;;21.82;41.58
75745;BME280;64359;51.366;-0.222;2023-03-03T04:21:00;102429.35;;;21.82;41.63
75745;BME280;64359;51.366;-0.222;2023-03-03T04:22:04;102430.98;;;21.82;41.70
75745;BME280;64359;51.366;-0.222;2023-03-03T04:23:08;102431.55;;;21.82;41.73
75745;BME280;64359;51.366;-0.222;2023-03-03T04:24:13;102431.89;;;21.82;41.96
75745;BME280;64359;51.366;-0.222;2023-03-03T04:25:17;102432.09;;;21.82;41.94
75745;BME280;64359;51.366;-0.222;2023-03-03T04:26:22;102433.35;;;21.82;41.87
75745;BME280;64359;51.366;-0.222;2023-03-03T04:27:26;102434.09;;;21.81;41.79
75745;BME280;64359;51.366;-0.222;2023-03-03T04:28:31;102433.92;;;21.81;41.89
75745;BME280;64359;51.366;-0.222;2023-03-03T04:29:35;102433.20;;;21.81;41.63
75745;BME280;64359;51.366;-0.222;2023-03-03T04:30:40;102433.70;;;21.82;41.85
75745;BME280;64359;51.366;-0.222;2023-03-03T04:31:45;102431.23;;;21.81;41.84
75745;BME280;64359;51.366;-0.222;2023-03-03T04:32:49;102430.52;;;21.81;41.69
75745;BME280;64359;51.366;-0.222;2023-03-03T04:33:55;102429.27;;;21.81;41.85
75745;BME280;64359;51.366;-0.222;2023-03-03T04:34:59;102430.55;;;21.81;41.83
75745;BME280;64359;51.366;-0.222;2023-03-03T04:36:04;102432.02;;;21.81;42.02
75745;BME280;64359;51.366;-0.222;2023-03-03T04:37:08;102432.39;;;21.80;41.85
75745;BME280;64359;51.366;-0.222;2023-03-03T04:38:13;102430.92;;;21.81;41.74
75745;BME280;64359;51.366;-0.222;2023-03-03T04:39:17;102432.62;;;21.80;41.83
75745;BME280;64359;51.366;-0.222;2023-03-03T04:40:22;102431.19;;;21.80;41.72
75745;BME280;64359;51.366;-0.222;2023-03-03T04:41:26;102431.15;;;21.80;41.77
75745;BME280;64359;51.366;-0.222;2023-03-03T04:42:30;102433.30;;;21.81;41.74
75745;BME280;64359;51.366;-0.222;2023-03-03T04:43:35;102428.48;;;21.80;41.72
75745;BME280;64359;51.366;-0.222;2023-03-03T04:44:39;102427.02;;;21.80;41.76
75745;BME280;64359;51.366;-0.222;2023-03-03T04:45:44;102426.88;;;21.80;41.79
75745;BME280;64359;51.366;-0.222;2023-03-03T04:46:48;102427.20;;;21.80;41.84
75745;BME280;64359;51.366;-0.222;2023-03-03T04:47:52;102431.02;;;21.80;41.84
75745;BME280;64359;51.366;-0.222;2023-03-03T04:48:57;102426.92;;;21.79;41.67
75745;BME280;64359;51.366;-0.222;2023-03-03T04:50:02;102428.41;;;21.79;41.78
75745;BME280;64359;51.366;-0.222;2023-03-03T04:51:07;102430.14;;;21.79;41.70
75745;BME280;64359;51.366;-0.222;2023-03-03T04:52:11;102431.22;;;21.79;41.75
75745;BME280;64359;51.366;-0.222;2023-03-03T04:53:15;102428.00;;;21.79;41.64
75745;BME280;64359;51.366;-0.222;2023-03-03T04:54:20;102427.63;;;21.79;41.90
75745;BME280;64359;51.366;-0.222;2023-03-03T04:55:24;102427.99;;;21.79;41.78
75745;BME280;64359;51.366;-0.222;2023-03-03T04:56:30;102426.44;;;21.79;41.79
75745;BME280;64359;51.366;-0.222;2023-03-03T04:57:34;102426.60;;;21.79;41.84
75745;BME280;64359;51.366;-0.222;2023-03-03T04:58:39;102426.70;;;21.78;41.87
75745;BME280;64359;51.366;-0.222;2023-03-03T04:59:43;102425.95;;;21.78;41.82
75745;BME280;64359;51.366;-0.222;2023-03-03T05:00:51;102427.06;;;21.78;41.71
75745;BME280;64359;51.366;-0.222;2023-03-03T05:01:56;102429.29;;;21.77;41.79
75745;BME280;64359;51.366;-0.222;2023-03-03T05:03:01;102428.40;;;21.77;41.92
75745;BME280;64359;51.366;-0.222;2023-03-03T05:04:06;102429.83;;;21.77;41.68
75745;BME280;64359;51.366;-0.222;2023-03-03T05:05:11;102428.23;;;21.76;41.79
75745;BME280;64359;51.366;-0.222;2023-03-03T05:06:16;102430.80;;;21.76;41.64
75745;BME280;64359;51.366;-0.222;2023-03-03T05:07:21;102431.84;;;21.77;41.62
75745;BME280;64359;51.366;-0.222;2023-03-03T05:08:26;102433.85;;;21.76;41.65
75745;BME280;64359;51.366;-0.222;2023-03-03T05:09:30;102431.48;;;21.76;41.60
75745;BME280;64359;51.366;-0.222;2023-03-03T05:10:35;102432.45;;;21.76;41.48
75745;BME280;64359;51.366;-0.222;2023-03-03T05:11:39;102433.21;;;21.75;41.73
75745;BME280;64359;51.366;-0.222;2023-03-03T05:12:43;102434.48;;;21.75;41.67
75745;BME280;64359;51.366;-0.222;2023-03-03T05:13:48;102434.51;;;21.75;41.63
75745;BME280;64359;51.366;-0.222;2023-03-03T05:14:52;102435.42;;;21.75;41.75
75745;BME280;64359;51.366;-0.222;2023-03-03T05:15:57;102435.45;;;21.74;41.59
75745;BME280;64359;51.366;-0.222;2023-03-03T05:17:02;102432.37;;;21.75;41.64
75745;BME280;64359;51.366;-0.222;2023-03-03T05:18:06;102434.20;;;21.74;41.74
75745;BME280;64359;51.366;-0.222;2023-03-03T05:19:11;102437.59;;;21.75;41.69
75745;BME280;64359;51.366;-0.222;2023-03-03T05:20:15;102437.11;;;21.74;41.85
75745;BME280;64359;51.366;-0.222;2023-03-03T05:21:20;102439.42;;;21.75;41.75
75745;BME280;64359;51.366;-0.222;2023-03-03T05:22:24;102437.63;;;21.75;41.76
75745;BME280;64359;51.366;-0.222;2023-03-03T05:23:29;102440.54;;;21.74;41.70
75745;BME280;64359;51.366;-0.222;2023-03-03T05:24:34;102440.00;;;21.74;41.65
75745;BME280;64359;51.366;-0.222;2023-03-03T05:25:40;102440.20;;;21.74;41.85
75745;BME280;64359;51.366;-0.222;2023-03-03T05:26:45;102441.48;;;21.74;41.90
75745;BME280;64359;51.366;-0.222;2023-03-03T05:27:49;102443.34;;;21.74;42.03
75745;BME280;64359;51.366;-0.222;2023-03-03T05:28:53;102442.73;;;21.74;41.96
75745;BME280;64359;51.366;-0.222;2023-03-03T05:29:57;102443.68;;;21.74;41.83
75745;BME280;64359;51.366;-0.222;2023-03-03T05:31:02;102445.48;;;21.74;41.96
75745;BME280;64359;51.366;-0.222;2023-03-03T05:32:06;102444.77;;;21.74;41.85
75745;BME280;64359;51.366;-0.222;2023-03-03T05:33:13;102435.15;;;21.74;41.85
75745;BME280;64359;51.366;-0.222;2023-03-03T05:34:17;102442.42;;;21.74;41.59
75745;BME280;64359;51.366;-0.222;2023-03-03T05:35:22;102437.78;;;21.73;41.63
75745;BME280;64359;51.366;-0.222;2023-03-03T05:36:26;102439.92;;;21.73;41.73
75745;BME280;64359;51.366;-0.222;2023-03-03T05:37:31;102441.71;;;21.74;41.88
75745;BME280;64359;51.366;-0.222;2023-03-03T05:38:35;102442.12;;;21.73;41.86
75745;BME280;64359;51.366;-0.222;2023-03-03T05:39:40;102439.55;;;21.74;41.77